Time;durP1;ratioP1;P1;durP2;ratioP2;P2;SDS_P1;SDS_P2;PMS_P1;PMS_P2;Temp;Humidity;BMP_temperature;BMP_pressure;BME280_temperature;BME280_humidity;BME280_pressure;Samples;Min_cycle;Max_cycle;Signal;HPM_P1;HPM_P2
2022/08/20 00:01:00;;;;;;;18.52;15.65;;;;;;;15.72;100.00;100894.63;5061764;28;20036;-76
2022/08/20 00:03:43;;;;;;;24.38;16.65;;;;;;;15.63;100.00;100876.91;5042465;28;20025;-78
2022/08/20 00:06:13;;;;;;;23.52;16.58;;;;;;;15.60;100.00;100872.75;5041170;28;20064;-77
2022/08/20 00:08:39;;;;;;;25.55;15.88;;;;;;;15.60;100.00;100866.53;5028416;28;20382;-78
2022/08/20 00:11:07;;;;;;;25.25;15.55;;;;;;;15.58;100.00;100869.41;5030868;28;20037;-77
2022/08/20 00:13:43;;;;;;;21.20;14.63;;;;;;;15.54;100.00;100865.44;5059263;28;20107;-77
2022/08/20 00:16:10;;;;;;;21.10;15.25;;;;;;;15.53;100.00;100871.84;5043213;28;20043;-77
2022/08/20 00:18:36;;;;;;;24.58;16.80;;;;;;;15.61;100.00;100869.03;5052518;28;20037;-77
2022/08/20 00:21:04;;;;;;;21.20;14.50;;;;;;;15.63;100.00;100875.06;5027462;28;20094;-77
2022/08/20 00:23:30;;;;;;;23.92;15.98;;;;;;;15.60;100.00;100880.84;5042508;28;20191;-78
2022/08/20 00:25:55;;;;;;;25.57;16.57;;;;;;;15.62;100.00;100873.41;5031239;28;20485;-79
2022/08/20 00:28:20;;;;;;;20.30;15.47;;;;;;;15.66;100.00;100878.38;5041745;28;20107;-77
2022/08/20 00:30:46;;;;;;;18.53;13.07;;;;;;;15.71;100.00;100875.97;5060317;28;20028;-77
2022/08/20 00:33:20;;;;;;;17.63;13.27;;;;;;;15.80;100.00;100872.97;5042801;28;20020;-77
2022/08/20 00:35:53;;;;;;;18.30;13.52;;;;;;;15.81;100.00;100873.81;5026284;28;20041;-77
2022/08/20 00:38:19;;;;;;;19.67;15.10;;;;;;;15.83;100.00;100879.84;5057148;28;20037;-77
2022/08/20 00:40:52;;;;;;;17.98;12.93;;;;;;;15.76;100.00;100877.09;5061261;28;20024;-77
2022/08/20 00:43:24;;;;;;;19.67;14.32;;;;;;;15.77;100.00;100875.22;5059512;28;20394;-77
2022/08/20 00:45:54;;;;;;;16.85;13.23;;;;;;;15.74;100.00;100868.38;5026462;28;20157;-78
2022/08/20 00:48:20;;;;;;;18.05;12.30;;;;;;;15.73;100.00;100871.25;5039813;28;20178;-76
2022/08/20 00:50:45;;;;;;;18.95;13.45;;;;;;;15.63;100.00;100871.53;5010976;28;20036;-77
2022/08/20 00:53:11;;;;;;;14.03;10.57;;;;;;;15.67;100.00;100872.81;5009749;28;20037;-79
2022/08/20 00:55:38;;;;;;;13.40;10.33;;;;;;;15.69;100.00;100878.84;5043998;28;20325;-77
2022/08/20 00:58:08;;;;;;;13.13;10.52;;;;;;;15.69;100.00;100875.34;5061201;28;20043;-78
2022/08/20 01:00:46;;;;;;;20.27;11.05;;;;;;;15.63;100.00;100880.44;5027049;28;20103;-77
2022/08/20 01:03:14;;;;;;;15.80;10.25;;;;;;;15.62;100.00;100876.09;5041436;28;20029;-76
2022/08/20 01:05:43;;;;;;;13.73;10.60;;;;;;;15.53;100.00;100871.84;5010216;28;20119;-79
2022/08/20 01:08:10;;;;;;;13.13;9.57;;;;;;;15.54;100.00;100876.19;5060545;28;20098;-77
2022/08/20 01:10:40;;;;;;;11.60;8.98;;;;;;;15.50;100.00;100872.25;5059876;28;20021;-78
2022/08/20 01:13:13;;;;;;;13.13;8.15;;;;;;;15.50;100.00;100874.09;5061268;28;20451;-78
2022/08/20 01:15:41;;;;;;;10.55;8.10;;;;;;;15.48;100.00;100868.91;5037026;28;20033;-77
2022/08/20 01:18:12;;;;;;;11.73;8.73;;;;;;;15.46;100.00;100876.34;5059412;28;20039;-78
2022/08/20 01:20:42;;;;;;;12.52;9.25;;;;;;;15.40;100.00;100883.34;5026135;28;20128;-77
2022/08/20 01:23:28;;;;;;;12.10;8.75;;;;;;;15.40;100.00;100885.16;5026822;28;20025;-77
2022/08/20 01:26:04;;;;;;;10.52;8.30;;;;;;;15.39;100.00;100881.66;5022595;28;20463;-77
2022/08/20 01:28:36;;;;;;;11.50;8.45;;;;;;;15.38;100.00;100874.63;5045052;28;20676;-78
2022/08/20 01:31:04;;;;;;;14.90;9.05;;;;;;;15.44;100.00;100875.69;5038019;28;20040;-77
2022/08/20 01:33:30;;;;;;;13.90;8.98;;;;;;;15.42;100.00;100877.75;5057652;28;20036;-78
2022/08/20 01:35:56;;;;;;;13.07;8.88;;;;;;;15.39;100.00;100881.66;5042801;28;20435;-77
2022/08/20 01:38:22;;;;;;;10.73;7.85;;;;;;;15.43;100.00;100881.25;5057484;28;20025;-77
2022/08/20 01:40:54;;;;;;;10.10;7.47;;;;;;;15.43;100.00;100886.63;5042475;28;20098;-77
2022/08/20 01:43:20;;;;;;;12.95;8.55;;;;;;;15.41;100.00;100885.00;5058572;28;20552;-78
2022/08/20 01:45:46;;;;;;;16.48;9.82;;;;;;;15.39;100.00;100886.19;5050659;28;20021;-77
2022/08/20 01:48:14;;;;;;;10.83;8.53;;;;;;;15.34;100.00;100884.09;5021804;28;20036;-77
2022/08/20 01:50:44;;;;;;;12.00;8.90;;;;;;;15.34;100.00;100883.25;5056884;28;20106;-78
2022/08/20 01:53:46;;;;;;;12.50;8.75;;;;;;;15.27;100.00;100882.34;5055196;28;20059;-78
2022/08/20 01:56:14;;;;;;;13.18;9.55;;;;;;;15.29;100.00;100886.53;5036791;28;20044;-77
2022/08/20 01:58:45;;;;;;;12.07;8.68;;;;;;;15.29;100.00;100891.03;5059278;28;20860;-78
2022/08/20 02:01:31;;;;;;;13.93;9.38;;;;;;;15.25;100.00;100890.59;5042497;28;20033;-79
2022/08/20 02:04:00;;;;;;;14.02;8.52;;;;;;;15.24;100.00;100899.72;5020547;28;20338;-77
2022/08/20 02:06:27;;;;;;;17.00;10.13;;;;;;;15.18;100.00;100901.28;5020784;28;20021;-79
2022/08/20 02:08:59;;;;;;;16.35;10.75;;;;;;;15.23;100.00;100908.78;5030523;28;20037;-78
2022/08/20 02:11:26;;;;;;;13.35;10.57;;;;;;;15.20;100.00;100899.25;5042983;28;20368;-77
2022/08/20 02:13:53;;;;;;;15.95;10.52;;;;;;;15.16;100.00;100897.94;5010270;28;20025;-77
2022/08/20 02:16:24;;;;;;;12.60;9.43;;;;;;;15.16;100.00;100900.63;5041579;28;20041;-77
2022/08/20 02:18:53;;;;;;;17.10;11.50;;;;;;;15.18;100.00;100911.22;5062950;28;20032;-79
2022/08/20 02:21:21;;;;;;;19.38;12.15;;;;;;;15.16;100.00;100903.31;5059240;28;20025;-77
2022/08/20 02:23:47;;;;;;;23.20;12.10;;;;;;;15.16;100.00;100907.88;5031697;28;20086;-77
2022/08/20 02:26:12;;;;;;;14.50;10.63;;;;;;;15.15;100.00;100900.84;5062023;28;20103;-77
2022/08/20 02:28:38;;;;;;;16.47;11.23;;;;;;;15.12;100.00;100910.09;5033720;28;20147;-79
2022/08/20 02:31:07;;;;;;;21.10;11.97;;;;;;;15.13;100.00;100913.63;5041603;28;20071;-77
2022/08/20 02:33:32;;;;;;;19.13;12.07;;;;;;;15.07;100.00;100904.44;5037789;28;20036;-77
2022/08/20 02:35:58;;;;;;;19.43;11.23;;;;;;;15.07;100.00;100907.13;5049364;28;20029;-78
2022/08/20 02:38:24;;;;;;;17.43;10.60;;;;;;;15.05;100.00;100895.72;5062558;28;20294;-77
2022/08/20 02:40:50;;;;;;;18.88;11.55;;;;;;;15.13;100.00;100897.50;5048521;28;20059;-77
2022/08/20 02:43:17;;;;;;;15.10;10.75;;;;;;;15.14;100.00;100915.28;5055232;28;20040;-77
2022/08/20 02:45:43;;;;;;;18.58;10.35;;;;;;;15.13;100.00;100911.78;5065546;28;20048;-78
2022/08/20 02:48:19;;;;;;;15.83;11.87;;;;;;;15.08;100.00;100892.69;5065781;28;20064;-77
2022/08/20 02:51:05;;;;;;;20.08;13.63;;;;;;;15.14;100.00;100908.06;5056202;28;20040;-76
2022/08/20 02:53:34;;;;;;;25.20;14.73;;;;;;;15.23;100.00;100902.56;5043554;28;20041;-76
2022/08/20 02:55:59;;;;;;;23.60;15.32;;;;;;;15.23;100.00;100902.56;5047074;28;20167;-77
2022/08/20 02:58:25;;;;;;;28.02;14.07;;;;;;;15.23;100.00;100903.41;5064589;28;20525;-75
2022/08/20 03:00:52;;;;;;;25.85;15.25;;;;;;;15.29;100.00;100912.56;5063450;28;20538;-78
2022/08/20 03:03:21;;;;;;;;;;;;;;;15.29;100.00;100907.19;5046849;28;20036;-77
2022/08/20 03:05:48;;;;;;;19.40;13.30;;;;;;;15.30;100.00;100908.88;5055675;28;19908;-76
2022/08/20 03:08:15;;;;;;;30.00;16.60;;;;;;;15.29;100.00;100913.41;5062461;28;20032;-77
2022/08/20 03:10:42;;;;;;;33.20;17.02;;;;;;;15.40;100.00;100922.84;5063410;28;20536;-76
2022/08/20 03:13:11;;;;;;;36.90;19.52;;;;;;;15.43;100.00;100924.31;5064229;28;20440;-77
2022/08/20 03:15:45;;;;;;;32.50;19.80;;;;;;;15.41;100.00;100919.13;5066109;28;20305;-78
2022/08/20 03:18:11;;;;;;;38.15;20.73;;;;;;;15.44;100.00;100923.28;5066076;28;20450;-77
2022/08/20 03:20:37;;;;;;;39.05;21.52;;;;;;;15.49;100.00;100921.69;5064422;28;20017;-77
2022/08/20 03:23:03;;;;;;;49.22;23.88;;;;;;;15.55;100.00;100918.25;5042578;28;20037;-79
2022/08/20 03:25:29;;;;;;;51.92;25.40;;;;;;;15.68;100.00;100922.09;5047718;28;20103;-77
2022/08/20 03:27:55;;;;;;;53.28;23.52;;;;;;;15.64;100.00;100916.28;5066341;28;20214;-79
2022/08/20 03:30:23;;;;;;;50.58;25.40;;;;;;;15.67;100.00;100918.56;5063387;28;20036;-78
2022/08/20 03:32:49;;;;;;;51.58;25.27;;;;;;;15.67;100.00;100925.81;5066814;28;20409;-78
2022/08/20 03:35:16;;;;;;;57.22;25.95;;;;;;;15.62;100.00;100918.31;5052288;28;20025;-79
2022/08/20 03:37:42;;;;;;;45.10;24.63;;;;;;;15.62;100.00;100913.78;5066312;28;20390;-79
2022/08/20 03:40:14;;;;;;;60.83;27.25;;;;;;;15.67;100.00;100920.44;5052446;28;20082;-78
2022/08/20 03:42:40;;;;;;;61.22;26.77;;;;;;;15.64;100.00;100916.28;5033143;28;20037;-77
2022/08/20 03:45:07;;;;;;;62.13;26.63;;;;;;;15.61;100.00;100917.47;5028252;28;20024;-77
2022/08/20 03:47:33;;;;;;;56.78;25.40;;;;;;;15.57;100.00;100912.69;5065226;28;20044;-78
2022/08/20 03:49:59;;;;;;;61.57;29.40;;;;;;;15.55;100.00;100918.25;5065810;28;20024;-79
2022/08/20 03:52:26;;;;;;;70.40;28.35;;;;;;;15.53;100.00;100908.72;5067500;28;20330;-76
2022/08/20 03:54:51;;;;;;;61.10;27.92;;;;;;;15.55;100.00;100923.63;5067880;28;20028;-78
2022/08/20 03:57:17;;;;;;;66.47;30.30;;;;;;;15.57;100.00;100924.28;5064936;28;20378;-79
2022/08/20 03:59:43;;;;;;;60.15;27.75;;;;;;;15.57;100.00;100935.03;5048388;28;20032;-78
2022/08/20 04:02:09;;;;;;;;;;;;;;;15.63;100.00;100938.81;5049146;28;20539;-78
2022/08/20 04:04:35;;;;;;;66.65;30.08;;;;;;;15.70;100.00;100946.97;5064146;28;20160;-76
2022/08/20 04:07:11;;;;;;;77.80;32.37;;;;;;;15.77;100.00;100947.91;5048613;28;20040;-77
2022/08/20 04:09:37;;;;;;;71.75;30.75;;;;;;;15.87;100.00;100959.16;5031170;28;20544;-78
2022/08/20 04:12:03;;;;;;;;;;;;;;;16.03;100.00;100967.00;5032558;28;20383;-79
2022/08/20 04:14:28;;;;;;;74.10;32.38;;;;;;;16.07;100.00;100967.44;5044388;28;19913;-77
2022/08/20 04:16:53;;;;;;;85.87;34.87;;;;;;;16.08;100.00;100961.03;5033692;28;20143;-77
2022/08/20 04:19:20;;;;;;;83.40;32.80;;;;;;;16.15;100.00;100958.41;5064219;28;20032;-78
2022/08/20 04:21:47;;;;;;;87.30;37.53;;;;;;;16.26;100.00;100965.94;5066218;28;20063;-77
2022/08/20 04:24:13;;;;;;;83.78;35.72;;;;;;;16.26;100.00;100965.94;5065051;28;20372;-78
2022/08/20 04:26:38;;;;;;;85.65;34.33;;;;;;;16.22;100.00;100959.28;5032392;28;20427;-78
2022/08/20 04:29:04;;;;;;;68.93;30.33;;;;;;;16.16;100.00;100970.84;5029894;28;20209;-78
2022/08/20 04:31:32;;;;;;;91.77;34.80;;;;;;;16.17;100.00;100965.25;5042182;28;20029;-77
2022/08/20 04:34:00;;;;;;;88.32;36.22;;;;;;;16.19;100.00;100978.53;5057129;28;20031;-76
2022/08/20 04:36:25;;;;;;;89.47;37.65;;;;;;;16.25;100.00;100972.38;5023698;28;20021;-77
2022/08/20 04:38:51;;;;;;;83.80;38.77;;;;;;;16.34;100.00;100970.34;5012786;28;20497;-77
2022/08/20 04:41:20;;;;;;;92.40;38.30;;;;;;;16.43;100.00;100975.41;5039743;28;20120;-76
2022/08/20 04:43:46;;;;;;;92.57;36.88;;;;;;;16.49;100.00;100970.28;5052385;28;20089;-77
2022/08/20 04:46:13;;;;;;;84.90;34.20;;;;;;;16.51;100.00;100973.63;5060247;28;20025;-77
2022/08/20 04:48:39;;;;;;;81.25;36.80;;;;;;;16.63;100.00;100975.56;5045403;28;20036;-78
2022/08/20 04:51:06;;;;;;;100.80;41.00;;;;;;;16.67;100.00;100992.19;5064234;28;20063;-78
2022/08/20 04:53:33;;;;;;;89.55;36.88;;;;;;;16.69;100.00;100987.41;5059367;28;20037;-77
2022/08/20 04:56:00;;;;;;;96.28;36.78;;;;;;;16.75;100.00;101000.13;5063544;28;20020;-78
2022/08/20 04:58:29;;;;;;;89.70;38.13;;;;;;;16.83;100.00;100999.16;5030559;28;20174;-77
2022/08/20 05:00:58;;;;;;;94.57;36.67;;;;;;;16.78;100.00;100983.53;5057966;28;20600;-78
2022/08/20 05:03:25;;;;;;;89.50;37.42;;;;;;;16.91;100.00;100998.19;5038123;28;21015;-77
2022/08/20 05:05:52;;;;;;;95.10;39.38;;;;;;;16.88;100.00;100985.94;5044270;28;20067;-77
2022/08/20 05:08:19;;;;;;;90.68;37.63;;;;;;;16.97;100.00;100991.97;5050766;28;20237;-79
2022/08/20 05:10:45;;;;;;;99.60;37.70;;;;;;;16.98;100.00;100993.66;5021157;28;20864;-79
2022/08/20 05:13:10;;;;;;;91.85;40.25;;;;;;;17.02;100.00;100994.91;5059137;28;20044;-78
2022/08/20 05:15:37;;;;;;;85.70;35.53;;;;;;;17.14;100.00;101000.56;5033614;28;20044;-79
2022/08/20 05:18:04;;;;;;;84.43;36.50;;;;;;;17.20;100.00;100997.91;5031207;28;20243;-79
2022/08/20 05:20:33;;;;;;;86.40;34.72;;;;;;;17.20;100.00;100997.91;5060084;28;20474;-76
2022/08/20 05:23:00;;;;;;;68.97;30.38;;;;;;;17.29;100.00;101003.97;5051066;28;20107;-78
2022/08/20 05:25:30;;;;;;;64.90;30.35;;;;;;;17.26;100.00;100983.63;5045651;28;20032;-78
2022/08/20 05:28:20;;;;;;;62.10;30.10;;;;;;;17.40;100.00;100994.50;5064059;28;20037;-78
2022/08/20 05:30:46;;;;;;;62.13;31.73;;;;;;;17.58;100.00;100991.22;5046493;28;20044;-78
2022/08/20 05:33:16;;;;;;;;;;;;;;;17.61;100.00;100988.97;5049840;28;20025;-78
2022/08/20 05:35:42;;;;;;;57.00;27.58;;;;;;;17.66;100.00;100986.47;5010165;28;19917;-79
2022/08/20 05:38:11;;;;;;;63.63;28.77;;;;;;;17.66;100.00;100970.28;5036593;28;20028;-78
2022/08/20 05:40:39;;;;;;;64.03;29.42;;;;;;;17.68;100.00;100973.63;5053021;28;20044;-78
2022/08/20 05:43:04;;;;;;;50.83;25.90;;;;;;;17.62;100.00;100966.31;5052295;28;20020;-79
2022/08/20 05:45:31;;;;;;;48.97;24.42;;;;;;;17.77;100.00;100963.47;5017503;28;20052;-78
2022/08/20 05:47:57;;;;;;;52.75;25.92;;;;;;;17.81;100.00;100975.53;5032843;28;20449;-77
2022/08/20 05:50:23;;;;;;;53.00;25.13;;;;;;;17.86;100.00;100970.38;5035945;28;20079;-76
2022/08/20 05:52:48;;;;;;;36.05;21.70;;;;;;;18.09;100.00;100969.13;5037429;28;20029;-77
2022/08/20 05:55:14;;;;;;;42.50;24.80;;;;;;;18.36;100.00;100975.38;5034058;28;20041;-77
2022/08/20 05:57:40;;;;;;;33.40;22.13;;;;;;;19.07;100.00;100976.53;5035754;28;20710;-77
2022/08/20 06:00:07;;;;;;;;;;;;;;;19.36;100.00;100970.63;5019384;28;20045;-77
2022/08/20 06:05:21;;;;;;;34.78;21.02;;;;;;;19.65;100.00;100935.88;5036010;28;20127;-77
2022/08/20 06:07:47;;;;;;;36.13;21.37;;;;;;;19.59;100.00;100923.19;5036480;28;20022;-77
2022/08/20 06:10:12;;;;;;;27.90;18.45;;;;;;;20.06;100.00;100923.72;5038216;28;20319;-76
2022/08/20 06:12:38;;;;;;;28.20;17.92;;;;;;;20.63;100.00;100910.09;5048557;28;20021;-77
2022/08/20 06:15:05;;;;;;;30.40;17.88;;;;;;;20.78;100.00;100882.59;5023102;28;20033;-77
2022/08/20 06:17:32;;;;;;;27.55;16.80;;;;;;;21.30;100.00;100882.97;5037343;28;20025;-77
2022/08/20 06:20:03;;;;;;;21.85;14.43;;;;;;;21.51;100.00;100876.22;5019125;28;20034;-77
2022/08/20 06:22:29;;;;;;;21.67;15.20;;;;;;;21.48;100.00;100858.50;5019615;28;20041;-76
2022/08/20 06:24:54;;;;;;;25.80;15.70;;;;;;;21.84;100.00;100862.09;5044178;28;20033;-77
2022/08/20 06:27:20;;;;;;;27.13;15.33;;;;;;;21.73;100.00;100822.19;5036892;28;20037;-77
2022/08/20 06:29:46;;;;;;;29.90;17.63;;;;;;;20.70;100.00;100815.06;5018922;28;20279;-77
2022/08/20 06:32:12;;;;;;;;;;;;;;;20.66;100.00;100861.66;5027779;28;20220;-77
2022/08/20 06:34:38;;;;;;;24.58;16.80;;;;;;;20.19;100.00;100882.97;5029115;28;20786;-77
2022/08/20 06:37:16;;;;;;;24.48;16.50;;;;;;;19.76;100.00;100905.41;5032425;28;20091;-78
2022/08/20 06:39:42;;;;;;;21.33;14.57;;;;;;;20.20;100.00;100940.72;5024414;28;20041;-77
2022/08/20 06:42:08;;;;;;;20.60;15.02;;;;;;;21.17;100.00;100948.31;5030672;28;20024;-77
2022/08/20 06:44:33;;;;;;;18.45;13.15;;;;;;;21.16;100.00;100887.75;5042468;28;20032;-77
2022/08/20 06:47:00;;;;;;;21.27;15.02;;;;;;;21.51;100.00;100873.50;5057636;28;20024;-78
2022/08/20 06:49:25;;;;;;;17.17;13.20;;;;;;;21.87;100.00;100829.03;5035586;28;20047;-77
2022/08/20 06:51:50;;;;;;;19.13;12.27;;;;;;;22.16;100.00;100804.69;5036728;28;20546;-77
2022/08/20 06:54:16;;;;;;;15.20;12.10;;;;;;;22.00;100.00;100770.06;5038473;28;20107;-78
2022/08/20 06:56:42;;;;;;;18.97;13.63;;;;;;;21.80;100.00;100763.13;5035724;28;20018;-77
2022/08/20 06:59:08;;;;;;;15.40;11.98;;;;;;;22.27;100.00;100801.16;5043170;28;20038;-77
2022/08/20 07:01:34;;;;;;;15.98;11.77;;;;;;;22.31;100.00;100791.47;5027619;28;20682;-77
2022/08/20 07:04:00;;;;;;;16.98;12.55;;;;;;;21.99;100.00;100798.31;5029774;28;20473;-78
2022/08/20 07:06:25;;;;;;;16.75;12.18;;;;;;;22.06;100.00;100815.34;5041737;28;20032;-77
2022/08/20 07:08:52;;;;;;;16.30;11.32;;;;;;;22.53;100.00;100798.97;5043689;28;20412;-77
2022/08/20 07:11:19;;;;;;;18.70;12.68;;;;;;;22.45;100.00;100793.91;5012892;28;20025;-77
2022/08/20 07:13:45;;;;;;;14.93;11.65;;;;;;;22.33;100.00;100826.56;5017397;28;20118;-78
2022/08/20 07:16:10;;;;;;;17.05;10.27;;;;;;;22.52;100.00;100827.25;5037369;28;20040;-77
2022/08/20 07:18:36;;;;;;;14.40;10.27;;;;;;;22.89;100.00;100807.84;5060973;28;20468;-77
2022/08/20 07:21:02;;;;;;;12.73;8.87;;;;;;;22.70;100.00;100769.13;5045224;28;20086;-77
2022/08/20 07:23:29;;;;;;;11.30;8.45;;;;;;;22.74;100.00;100757.50;5031080;28;20496;-77
2022/08/20 07:25:54;;;;;;;12.00;8.23;;;;;;;23.26;100.00;100763.91;5044535;28;20530;-77
2022/08/20 07:28:22;;;;;;;10.98;8.40;;;;;;;22.55;100.00;100690.75;5058851;28;20044;-78
2022/08/20 07:33:34;;;;;;;12.52;8.38;;;;;;;22.38;100.00;100779.59;5058749;28;20512;-75
2022/08/20 07:36:02;;;;;;;9.07;7.25;;;;;;;22.97;100.00;100837.44;5057392;28;20029;-75
2022/08/20 07:38:29;;;;;;;10.23;8.55;;;;;;;22.23;100.00;100810.03;5047159;28;20436;-78
2022/08/20 07:41:00;;;;;;;10.32;7.70;;;;;;;22.22;100.00;100868.19;5063146;28;20036;-78
2022/08/20 07:43:27;;;;;;;12.15;8.57;;;;;;;22.15;100.00;100881.91;5061147;28;20097;-77
2022/08/20 07:45:55;;;;;;;;;;;;;;;22.71;100.00;100845.06;5045288;28;20024;-77
2022/08/20 07:48:24;;;;;;;7.88;5.78;;;;;;;22.75;100.00;100802.69;5042949;28;19955;-77
2022/08/20 07:50:51;;;;;;;7.95;6.78;;;;;;;23.50;100.00;100776.28;5062180;28;20039;-78
2022/08/20 07:53:16;;;;;;;;;;;;;;;23.35;100.00;100694.31;5037414;28;20039;-76
2022/08/20 07:55:43;;;;;;;8.63;7.30;;;;;;;23.03;100.00;100661.41;5046342;28;20391;-77
2022/08/20 07:58:11;;;;;;;10.93;7.38;;;;;;;22.29;100.00;100728.31;5047998;28;20028;-77
2022/08/20 08:00:37;;;;;;;11.07;8.27;;;;;;;21.61;100.00;100770.56;5061237;28;20075;-77
2022/08/20 08:03:03;;;;;;;8.10;5.90;;;;;;;22.78;100.00;100923.88;5048770;28;20127;-77
2022/08/20 08:05:30;;;;;;;8.68;6.38;;;;;;;22.69;100.00;100819.19;5060666;28;20020;-78
2022/08/20 08:07:57;;;;;;;7.38;6.65;;;;;;;23.07;100.00;100837.63;5044876;28;20035;-77
2022/08/20 08:10:23;;;;;;;5.88;4.97;;;;;;;23.81;100.00;100836.75;5046512;28;20052;-77
2022/08/20 08:12:57;;;;;;;8.25;5.78;;;;;;;23.85;100.00;100701.63;5062237;28;20040;-78
2022/08/20 08:15:27;;;;;;;5.65;4.57;;;;;;;24.29;100.00;100753.47;5046342;28;20040;-75
2022/08/20 08:17:57;;;;;;;6.72;5.20;;;;;;;24.33;100.00;100696.50;5044466;28;20044;-75
2022/08/20 08:20:22;;;;;;;7.78;4.78;;;;;;;23.97;100.00;100554.25;5041943;28;20033;-75
2022/08/20 08:22:49;;;;;;;5.90;4.80;;;;;;;24.34;100.00;100611.66;5048585;28;20031;-75
2022/08/20 08:25:15;;;;;;;5.00;3.47;;;;;;;24.95;100.00;100684.31;5042746;28;20279;-75
2022/08/20 08:27:42;;;;;;;8.63;4.20;;;;;;;24.16;100.00;100543.81;5060773;28;20534;-74
2022/08/20 08:30:08;;;;;;;4.93;3.83;;;;;;;24.44;100.00;100603.59;5054358;28;20052;-75
2022/08/20 08:32:35;;;;;;;5.70;3.65;;;;;;;24.37;100.00;100515.69;5058180;28;20086;-75
2022/08/20 08:35:06;;;;;;;4.40;3.47;;;;;;;24.77;100.00;100484.34;5044652;28;20566;-75
2022/08/20 08:37:31;;;;;;;4.63;3.30;;;;;;;24.38;100.00;100328.25;5058739;28;20029;-77
2022/08/20 08:39:57;;;;;;;4.75;3.10;;;;;;;24.57;100.00;100549.69;5061592;28;20032;-77
2022/08/20 08:42:35;;;;;;;2.78;2.42;;;;;;;25.33;100.00;100505.69;5059852;28;20111;-77
2022/08/20 08:45:03;;;;;;;4.22;2.50;;;;;;;25.85;100.00;100372.72;5062116;28;20105;-77
2022/08/20 08:47:34;;;;;;;3.00;2.50;;;;;;;25.51;99.30;100296.69;5015606;28;20071;-77
2022/08/20 08:50:01;;;;;;;2.55;2.05;;;;;;;25.68;93.71;100237.13;5047783;28;20071;-75
2022/08/20 08:52:33;;;;;;;5.13;2.70;;;;;;;25.87;99.67;100428.78;5058871;28;20535;-75
2022/08/20 08:55:03;;;;;;;4.90;2.00;;;;;;;26.13;95.54;100392.41;5060337;28;20572;-75
2022/08/20 08:57:28;;;;;;;2.50;2.20;;;;;;;27.12;92.08;100455.75;5045833;28;20474;-75
2022/08/20 09:00:00;;;;;;;4.18;2.30;;;;;;;26.99;86.65;100317.44;5060283;28;20043;-75
2022/08/20 09:02:29;;;;;;;3.70;2.00;;;;;;;26.90;87.76;100346.50;5041567;28;20082;-76
2022/08/20 09:04:58;;;;;;;3.58;1.50;;;;;;;27.03;84.14;100290.31;5061681;28;20055;-76
2022/08/20 09:07:27;;;;;;;3.20;2.17;;;;;;;26.63;83.49;100231.94;5029231;28;20568;-75
2022/08/20 09:09:52;;;;;;;6.32;2.60;;;;;;;26.74;81.41;100237.06;5043128;28;20105;-76
2022/08/20 09:12:22;;;;;;;6.68;1.90;;;;;;;26.73;78.69;100185.31;5059468;28;20056;-76
2022/08/20 09:14:49;;;;;;;3.00;1.80;;;;;;;26.77;82.13;100301.41;5021896;28;20032;-75
2022/08/20 09:17:16;;;;;;;4.00;2.08;;;;;;;26.95;84.62;100423.22;5021784;28;20039;-76
2022/08/20 09:19:42;;;;;;;3.00;2.28;;;;;;;26.79;79.27;100183.38;5018380;28;20599;-75
2022/08/20 09:22:13;;;;;;;3.10;2.20;;;;;;;27.71;78.13;100325.19;5039487;28;20033;-76
2022/08/20 09:24:40;;;;;;;2.08;1.77;;;;;;;27.71;78.01;100378.13;5041281;28;20076;-75
2022/08/20 09:27:06;;;;;;;3.45;2.80;;;;;;;26.39;76.22;100065.63;5039868;28;20028;-75
2022/08/20 09:29:32;;;;;;;6.85;2.40;;;;;;;26.70;79.60;100284.47;5043616;28;20040;-77
2022/08/20 09:32:17;;;;;;;2.50;2.17;;;;;;;26.48;78.61;100225.41;5044780;28;20066;-77
2022/08/20 09:34:54;;;;;;;3.88;2.70;;;;;;;26.75;76.15;100161.22;5017580;28;20037;-80
2022/08/20 09:37:21;;;;;;;6.65;2.80;;;;;;;27.10;79.44;100364.78;5040915;28;20049;-74
2022/08/20 09:39:46;;;;;;;4.38;2.72;;;;;;;26.60;79.28;100281.75;5027524;28;20028;-76
2022/08/20 09:42:21;;;;;;;4.47;2.45;;;;;;;26.78;74.41;100154.34;5026206;28;20117;-77
2022/08/20 09:44:47;;;;;;;4.60;2.30;;;;;;;26.89;75.15;100238.88;5022347;28;20105;-76
2022/08/20 09:47:13;;;;;;;2.70;2.33;;;;;;;27.42;71.68;100196.31;5048194;28;20446;-77
2022/08/20 09:49:38;;;;;;;3.78;2.58;;;;;;;27.46;71.01;100194.63;5051097;28;20116;-77
2022/08/20 09:52:06;;;;;;;4.57;1.92;;;;;;;27.85;71.21;100273.28;5029099;28;20884;-75
2022/08/20 09:54:33;;;;;;;3.72;1.90;;;;;;;28.42;69.02;100255.06;5041554;28;20036;-77
2022/08/20 09:57:02;;;;;;;4.00;2.03;;;;;;;28.03;67.60;100096.97;5037079;28;20029;-78
2022/08/20 09:59:29;;;;;;;6.30;1.98;;;;;;;27.80;66.84;100079.38;5037617;28;20032;-75
2022/08/20 10:01:54;;;;;;;3.50;1.80;;;;;;;27.48;67.62;100083.59;5019438;28;20028;-75
2022/08/20 10:04:20;;;;;;;2.45;1.65;;;;;;;27.53;64.23;99924.56;5031566;28;20132;-75
2022/08/20 10:06:46;;;;;;;3.85;1.83;;;;;;;27.39;66.13;100046.16;5040677;28;20485;-75
2022/08/20 10:09:12;;;;;;;5.20;1.70;;;;;;;27.51;65.55;100027.38;5040583;28;20055;-77
2022/08/20 10:11:37;;;;;;;3.83;1.70;;;;;;;27.74;62.17;99914.09;5020253;28;20466;-78
2022/08/20 10:14:03;;;;;;;4.50;1.50;;;;;;;27.79;61.66;99894.84;5037065;28;20136;-77
2022/08/20 10:16:29;;;;;;;3.85;1.65;;;;;;;28.28;58.96;99826.81;5037197;28;20021;-76
2022/08/20 10:18:55;;;;;;;3.85;1.50;;;;;;;28.49;56.84;99676.28;5037032;28;20448;-74
2022/08/20 10:21:21;;;;;;;5.75;1.70;;;;;;;28.45;58.28;99823.50;5027915;28;20517;-77
2022/08/20 10:23:46;;;;;;;5.10;1.77;;;;;;;28.19;56.62;99607.19;5034038;28;20136;-76
2022/08/20 10:26:12;;;;;;;6.53;1.70;;;;;;;28.50;55.94;99688.91;5020610;28;20033;-75
2022/08/20 10:28:38;;;;;;;;;;;;;;;29.23;57.77;99933.50;5029740;28;20136;-76
2022/08/20 10:31:08;;;;;;;6.72;1.75;;;;;;;28.85;56.83;99722.19;5032093;28;19909;-76
2022/08/20 10:33:35;;;;;;;7.43;2.08;;;;;;;27.99;58.74;99742.03;5040223;28;20071;-74
2022/08/20 10:36:14;;;;;;;4.10;2.03;;;;;;;27.67;57.85;99616.72;5037530;28;20478;-76
2022/08/20 10:38:40;;;;;;;4.47;1.90;;;;;;;28.03;57.33;99712.88;5035118;28;20512;-77
2022/08/20 10:41:05;;;;;;;3.75;1.63;;;;;;;28.04;59.17;99859.91;5031862;28;20056;-77
2022/08/20 10:43:30;;;;;;;6.70;1.98;;;;;;;26.86;59.04;99601.41;5028235;28;20057;-77
2022/08/20 10:45:56;;;;;;;2.95;1.73;;;;;;;25.71;64.02;99754.66;5026726;28;20548;-77
2022/08/20 10:48:22;;;;;;;4.30;1.70;;;;;;;25.45;65.08;99801.31;5024045;28;20035;-77
2022/08/20 10:50:48;;;;;;;;;;;;;;;26.39;68.11;100174.28;5044064;28;20505;-77
2022/08/20 10:53:13;;;;;;;7.32;1.75;;;;;;;27.21;65.27;100177.34;5042504;28;19917;-78
2022/08/20 10:55:39;;;;;;;5.60;1.55;;;;;;;27.54;63.48;100118.06;5043142;28;20009;-77
2022/08/20 10:58:05;;;;;;;9.43;2.35;;;;;;;26.44;67.42;100083.94;5043099;28;20036;-75
2022/08/20 11:00:31;;;;;;;9.18;2.20;;;;;;;26.88;64.50;100040.09;5041631;28;20029;-77
2022/08/20 11:02:57;;;;;;;7.07;2.30;;;;;;;27.69;63.64;100158.22;5053049;28;20040;-76
2022/08/20 11:05:22;;;;;;;4.65;2.22;;;;;;;28.05;62.29;100149.59;5037341;28;20045;-77
2022/08/20 11:07:48;;;;;;;6.10;2.30;;;;;;;28.42;60.13;100071.13;5041136;28;20044;-77
2022/08/20 11:10:13;;;;;;;5.93;1.92;;;;;;;28.62;58.56;100029.66;5039479;28;20100;-76
2022/08/20 11:12:39;;;;;;;;;;;;;;;29.00;57.79;100020.50;5040551;28;20038;-74
2022/08/20 11:15:05;;;;;;;6.90;1.70;;;;;;;29.35;58.21;100161.97;5009546;28;20376;-74
2022/08/20 11:17:33;;;;;;;8.93;2.25;;;;;;;28.32;57.13;99783.13;5039661;28;20025;-77
2022/08/20 11:20:00;;;;;;;9.23;3.00;;;;;;;28.32;57.75;99843.50;5039253;28;20029;-77